Terminal Aerodrome Forecast
Issued by NWS

Home | Current Version | Previous Version | Text Only | Print | Product List | Glossary On
Versions: 1 2 3 4 5 6 7 8 9 10 11 12 13
885
FTUS45 KREV 251139
TAFMMH
TAF
KMMH 251139Z 2512/2612 30006KT P6SM BKN200
     FM251800 13007KT P6SM SCT150
     FM260100 28010KT P6SM SCT080
     FM260600 VRB04KT P6SM SCT180=

USA.gov is the U.S. government's official web portal to all federal, state and local government web resources and services.